5NBSK DNCA-DNPO
Flight info
| Callsign | 5NBSK |
|---|---|
| Flight time | 0h 39m |
| Altitude | 2000 |
| Route | CAL DCT POT |
| Aircraft | A139/L-V/N |
Departure
| Time | 2026-04-25 08:13 |
|---|---|
| Airport | Margaret Ekpo International Airport (DNCA) |
Arrival
| Time | 2026-04-25 08:52 |
|---|---|
| Airport | Port Harcourt International Airport (DNPO) |
| Time | Latitude | Longitude | Altitude | Speed | Heading |
|---|---|---|---|---|---|
| 2026-04-25 08:09 | 4.96966 | 8.34640 | 219 ft | 0 kts | 251° |
| 2026-04-25 08:11 | 4.96965 | 8.34638 | 219 ft | 1 kts | 246° |
| 2026-04-25 08:11 | 4.96957 | 8.34622 | 219 ft | 3 kts | 246° |
| 2026-04-25 08:11 | 4.96948 | 8.34591 | 219 ft | 6 kts | 268° |
| 2026-04-25 08:12 | 4.96962 | 8.34545 | 218 ft | 7 kts | 297° |
| 2026-04-25 08:12 | 4.96988 | 8.34496 | 218 ft | 8 kts | 298° |
| 2026-04-25 08:12 | 4.97007 | 8.34448 | 218 ft | 7 kts | 265° |
| 2026-04-25 08:12 | 4.96972 | 8.34412 | 220 ft | 7 kts | 206° |
| 2026-04-25 08:13 | 4.96857 | 8.34346 | 341 ft | 43 kts | 204° |
| 2026-04-25 08:13 | 4.96411 | 8.34132 | 615 ft | 95 kts | 204° |
| 2026-04-25 08:13 | 4.95797 | 8.33854 | 1067 ft | 100 kts | 201° |
| 2026-04-25 08:14 | 4.94520 | 8.33228 | 1599 ft | 105 kts | 202° |
| 2026-04-25 08:14 | 4.93847 | 8.32888 | 1787 ft | 113 kts | 207° |
| 2026-04-25 08:14 | 4.93120 | 8.32520 | 1992 ft | 120 kts | 209° |
| 2026-04-25 08:14 | 4.92447 | 8.31971 | 1971 ft | 134 kts | 233° |
| 2026-04-25 08:15 | 4.92223 | 8.31036 | 1994 ft | 142 kts | 267° |
| 2026-04-25 08:15 | 4.92258 | 8.30049 | 2034 ft | 142 kts | 269° |
| 2026-04-25 08:15 | 4.92304 | 8.29056 | 2026 ft | 142 kts | 269° |
| 2026-04-25 08:15 | 4.92353 | 8.28049 | 2011 ft | 143 kts | 269° |
| 2026-04-25 08:16 | 4.92398 | 8.27057 | 2004 ft | 143 kts | 269° |
| 2026-04-25 08:16 | 4.92443 | 8.26055 | 1996 ft | 143 kts | 269° |
| 2026-04-25 08:16 | 4.92486 | 8.25067 | 1991 ft | 143 kts | 269° |
| 2026-04-25 08:16 | 4.92529 | 8.24070 | 1994 ft | 143 kts | 269° |
| 2026-04-25 08:17 | 4.92575 | 8.23066 | 1991 ft | 143 kts | 269° |
| 2026-04-25 08:17 | 4.92618 | 8.22050 | 1996 ft | 143 kts | 268° |
| 2026-04-25 08:17 | 4.92663 | 8.21053 | 1994 ft | 143 kts | 268° |
| 2026-04-25 08:17 | 4.92705 | 8.20052 | 1999 ft | 142 kts | 269° |
| 2026-04-25 08:18 | 4.92746 | 8.19064 | 1999 ft | 142 kts | 269° |
| 2026-04-25 08:18 | 4.92792 | 8.18061 | 1991 ft | 142 kts | 268° |
| 2026-04-25 08:18 | 4.92832 | 8.17069 | 1990 ft | 142 kts | 269° |
| 2026-04-25 08:18 | 4.92875 | 8.16074 | 1989 ft | 143 kts | 269° |
| 2026-04-25 08:19 | 4.92917 | 8.15086 | 1990 ft | 143 kts | 269° |
| 2026-04-25 08:19 | 4.92962 | 8.14070 | 1994 ft | 143 kts | 268° |
| 2026-04-25 08:19 | 4.93004 | 8.13077 | 1998 ft | 143 kts | 268° |
| 2026-04-25 08:19 | 4.93046 | 8.12074 | 1999 ft | 143 kts | 269° |
| 2026-04-25 08:20 | 4.93090 | 8.11074 | 1995 ft | 144 kts | 268° |
| 2026-04-25 08:20 | 4.93134 | 8.10065 | 1996 ft | 143 kts | 268° |
| 2026-04-25 08:20 | 4.93175 | 8.09079 | 2003 ft | 142 kts | 268° |
| 2026-04-25 08:20 | 4.93217 | 8.08073 | 2001 ft | 142 kts | 268° |
| 2026-04-25 08:21 | 4.93262 | 8.07081 | 2001 ft | 142 kts | 268° |
| 2026-04-25 08:21 | 4.93303 | 8.06085 | 1996 ft | 141 kts | 268° |
| 2026-04-25 08:21 | 4.93346 | 8.05107 | 1995 ft | 141 kts | 268° |
| 2026-04-25 08:21 | 4.93386 | 8.04116 | 1992 ft | 141 kts | 268° |
| 2026-04-25 08:22 | 4.93430 | 8.03131 | 1993 ft | 141 kts | 268° |
| 2026-04-25 08:22 | 4.93474 | 8.02126 | 1989 ft | 142 kts | 268° |
| 2026-04-25 08:22 | 4.93513 | 8.01146 | 1989 ft | 142 kts | 269° |
| 2026-04-25 08:22 | 4.93558 | 8.00138 | 1989 ft | 143 kts | 269° |
| 2026-04-25 08:23 | 4.93600 | 7.99137 | 1994 ft | 143 kts | 268° |
| 2026-04-25 08:23 | 4.93642 | 7.98138 | 2000 ft | 143 kts | 269° |
| 2026-04-25 08:23 | 4.93685 | 7.97135 | 2002 ft | 143 kts | 268° |
| 2026-04-25 08:23 | 4.93728 | 7.96147 | 2002 ft | 143 kts | 268° |
| 2026-04-25 08:24 | 4.93770 | 7.95143 | 1998 ft | 143 kts | 268° |
| 2026-04-25 08:24 | 4.93814 | 7.94150 | 1999 ft | 142 kts | 268° |
| 2026-04-25 08:24 | 4.93857 | 7.93149 | 1999 ft | 142 kts | 268° |
| 2026-04-25 08:24 | 4.93897 | 7.92166 | 1996 ft | 142 kts | 268° |
| 2026-04-25 08:25 | 4.93940 | 7.91168 | 1997 ft | 141 kts | 268° |
| 2026-04-25 08:25 | 4.93983 | 7.90179 | 1989 ft | 142 kts | 268° |
| 2026-04-25 08:25 | 4.94024 | 7.89191 | 1985 ft | 142 kts | 268° |
| 2026-04-25 08:25 | 4.94065 | 7.88191 | 1986 ft | 143 kts | 269° |
| 2026-04-25 08:26 | 4.94109 | 7.87194 | 1989 ft | 143 kts | 268° |
| 2026-04-25 08:26 | 4.94152 | 7.86200 | 1995 ft | 143 kts | 268° |
| 2026-04-25 08:26 | 4.94195 | 7.85194 | 2001 ft | 143 kts | 268° |
| 2026-04-25 08:26 | 4.94237 | 7.84205 | 1999 ft | 143 kts | 268° |
| 2026-04-25 08:27 | 4.94280 | 7.83213 | 1996 ft | 143 kts | 268° |
| 2026-04-25 08:27 | 4.94322 | 7.82213 | 2000 ft | 142 kts | 268° |
| 2026-04-25 08:27 | 4.94366 | 7.81221 | 1997 ft | 141 kts | 268° |
| 2026-04-25 08:27 | 4.94409 | 7.80244 | 1998 ft | 141 kts | 268° |
| 2026-04-25 08:28 | 4.94448 | 7.79259 | 1990 ft | 141 kts | 268° |
| 2026-04-25 08:28 | 4.94490 | 7.78275 | 1984 ft | 141 kts | 268° |
| 2026-04-25 08:28 | 4.94531 | 7.77286 | 1986 ft | 141 kts | 269° |
| 2026-04-25 08:28 | 4.94602 | 7.76307 | 1991 ft | 142 kts | 272° |
| 2026-04-25 08:29 | 4.94710 | 7.75321 | 2000 ft | 142 kts | 272° |
| 2026-04-25 08:29 | 4.94824 | 7.74331 | 2006 ft | 142 kts | 272° |
| 2026-04-25 08:29 | 4.94931 | 7.73347 | 2007 ft | 142 kts | 272° |
| 2026-04-25 08:29 | 4.95042 | 7.72363 | 2010 ft | 142 kts | 272° |
| 2026-04-25 08:30 | 4.95153 | 7.71375 | 2008 ft | 142 kts | 272° |
| 2026-04-25 08:30 | 4.95269 | 7.70369 | 2006 ft | 142 kts | 272° |
| 2026-04-25 08:30 | 4.95381 | 7.69378 | 2004 ft | 142 kts | 272° |
| 2026-04-25 08:30 | 4.95493 | 7.68396 | 2002 ft | 142 kts | 271° |
| 2026-04-25 08:31 | 4.95604 | 7.67406 | 1998 ft | 142 kts | 272° |
| 2026-04-25 08:31 | 4.95716 | 7.66412 | 1998 ft | 142 kts | 271° |
| 2026-04-25 08:31 | 4.95824 | 7.65435 | 1998 ft | 142 kts | 271° |
| 2026-04-25 08:31 | 4.95935 | 7.64449 | 1997 ft | 142 kts | 272° |
| 2026-04-25 08:32 | 4.96045 | 7.63475 | 1996 ft | 142 kts | 272° |
| 2026-04-25 08:32 | 4.96156 | 7.62486 | 1995 ft | 142 kts | 272° |
| 2026-04-25 08:32 | 4.96270 | 7.61492 | 1995 ft | 142 kts | 272° |
| 2026-04-25 08:32 | 4.96379 | 7.60513 | 1996 ft | 142 kts | 272° |
| 2026-04-25 08:33 | 4.96492 | 7.59519 | 1998 ft | 143 kts | 272° |
| 2026-04-25 08:33 | 4.96605 | 7.58531 | 1998 ft | 143 kts | 272° |
| 2026-04-25 08:33 | 4.96715 | 7.57541 | 2000 ft | 142 kts | 272° |
| 2026-04-25 08:33 | 4.96826 | 7.56559 | 1998 ft | 142 kts | 272° |
| 2026-04-25 08:34 | 4.96938 | 7.55561 | 1997 ft | 142 kts | 273° |
| 2026-04-25 08:34 | 4.97049 | 7.54587 | 1995 ft | 142 kts | 272° |
| 2026-04-25 08:34 | 4.97163 | 7.53600 | 1999 ft | 141 kts | 272° |
| 2026-04-25 08:34 | 4.97272 | 7.52624 | 1998 ft | 141 kts | 272° |
| 2026-04-25 08:35 | 4.97383 | 7.51644 | 1995 ft | 140 kts | 272° |
| 2026-04-25 08:35 | 4.97492 | 7.50669 | 1989 ft | 141 kts | 272° |
| 2026-04-25 08:35 | 4.97604 | 7.49687 | 1986 ft | 141 kts | 272° |
| 2026-04-25 08:35 | 4.97712 | 7.48712 | 1983 ft | 141 kts | 272° |
| 2026-04-25 08:36 | 4.97823 | 7.47724 | 1987 ft | 141 kts | 272° |
| 2026-04-25 08:36 | 4.97938 | 7.46729 | 1990 ft | 142 kts | 272° |
| 2026-04-25 08:36 | 4.98047 | 7.45746 | 1992 ft | 142 kts | 272° |
| 2026-04-25 08:36 | 4.98159 | 7.44759 | 1994 ft | 142 kts | 272° |
| 2026-04-25 08:37 | 4.98271 | 7.43757 | 1994 ft | 142 kts | 272° |
| 2026-04-25 08:37 | 4.98379 | 7.42776 | 2001 ft | 142 kts | 272° |
| 2026-04-25 08:37 | 4.98489 | 7.41795 | 2003 ft | 142 kts | 272° |
| 2026-04-25 08:37 | 4.98600 | 7.40801 | 2000 ft | 141 kts | 272° |
| 2026-04-25 08:38 | 4.98709 | 7.39831 | 1997 ft | 141 kts | 272° |
| 2026-04-25 08:38 | 4.98819 | 7.38852 | 1991 ft | 141 kts | 272° |
| 2026-04-25 08:38 | 4.98930 | 7.37871 | 1991 ft | 141 kts | 272° |
| 2026-04-25 08:38 | 4.99040 | 7.36904 | 1992 ft | 140 kts | 272° |
| 2026-04-25 08:39 | 4.99149 | 7.35924 | 1988 ft | 140 kts | 272° |
| 2026-04-25 08:39 | 4.99258 | 7.34952 | 1986 ft | 141 kts | 272° |
| 2026-04-25 08:39 | 4.99370 | 7.33974 | 1989 ft | 141 kts | 272° |
| 2026-04-25 08:39 | 4.99481 | 7.32995 | 1991 ft | 141 kts | 272° |
| 2026-04-25 08:40 | 4.99591 | 7.32005 | 1988 ft | 142 kts | 272° |
| 2026-04-25 08:40 | 4.99699 | 7.31021 | 1996 ft | 142 kts | 272° |
| 2026-04-25 08:40 | 4.99812 | 7.30038 | 1999 ft | 142 kts | 272° |
| 2026-04-25 08:40 | 4.99922 | 7.29058 | 1998 ft | 141 kts | 272° |
| 2026-04-25 08:41 | 5.00030 | 7.28083 | 1995 ft | 141 kts | 273° |
| 2026-04-25 08:41 | 5.00142 | 7.27095 | 1996 ft | 141 kts | 272° |
| 2026-04-25 08:41 | 5.00254 | 7.26118 | 1999 ft | 140 kts | 272° |
| 2026-04-25 08:41 | 5.00362 | 7.25144 | 1993 ft | 140 kts | 272° |
| 2026-04-25 08:42 | 5.00472 | 7.24171 | 1994 ft | 140 kts | 271° |
| 2026-04-25 08:42 | 5.00580 | 7.23208 | 1990 ft | 140 kts | 272° |
| 2026-04-25 08:42 | 5.00688 | 7.22230 | 1984 ft | 141 kts | 272° |
| 2026-04-25 08:42 | 5.00800 | 7.21246 | 1987 ft | 141 kts | 272° |
| 2026-04-25 08:43 | 5.00911 | 7.20267 | 1993 ft | 141 kts | 272° |
| 2026-04-25 08:43 | 5.01019 | 7.19288 | 1992 ft | 141 kts | 272° |
| 2026-04-25 08:43 | 5.01131 | 7.18315 | 1959 ft | 141 kts | 271° |
| 2026-04-25 08:43 | 5.01245 | 7.17338 | 1832 ft | 140 kts | 271° |
| 2026-04-25 08:44 | 5.01358 | 7.16381 | 1737 ft | 133 kts | 271° |
| 2026-04-25 08:44 | 5.01471 | 7.15488 | 1684 ft | 121 kts | 271° |
| 2026-04-25 08:44 | 5.01587 | 7.14697 | 1592 ft | 111 kts | 271° |
| 2026-04-25 08:44 | 5.01688 | 7.13958 | 1470 ft | 103 kts | 272° |
| 2026-04-25 08:45 | 5.01750 | 7.13243 | 1309 ft | 102 kts | 271° |
| 2026-04-25 08:45 | 5.01801 | 7.12531 | 1171 ft | 102 kts | 271° |
| 2026-04-25 08:45 | 5.01852 | 7.11823 | 1039 ft | 102 kts | 276° |
| 2026-04-25 08:45 | 5.01860 | 7.11104 | 996 ft | 102 kts | 271° |
| 2026-04-25 08:46 | 5.01897 | 7.10393 | 1002 ft | 101 kts | 271° |
| 2026-04-25 08:46 | 5.01940 | 7.09686 | 998 ft | 102 kts | 271° |
| 2026-04-25 08:46 | 5.01980 | 7.08966 | 1008 ft | 102 kts | 272° |
| 2026-04-25 08:46 | 5.02019 | 7.08249 | 1010 ft | 103 kts | 271° |
| 2026-04-25 08:47 | 5.02061 | 7.07541 | 1018 ft | 102 kts | 271° |
| 2026-04-25 08:47 | 5.02100 | 7.06820 | 1019 ft | 103 kts | 272° |
| 2026-04-25 08:47 | 5.02134 | 7.06105 | 1026 ft | 102 kts | 272° |
| 2026-04-25 08:47 | 5.02167 | 7.05393 | 1021 ft | 102 kts | 271° |
| 2026-04-25 08:48 | 5.02196 | 7.04678 | 1019 ft | 102 kts | 271° |
| 2026-04-25 08:48 | 5.02224 | 7.03972 | 1015 ft | 102 kts | 272° |
| 2026-04-25 08:48 | 5.02255 | 7.03260 | 1020 ft | 102 kts | 272° |
| 2026-04-25 08:48 | 5.02293 | 7.02555 | 1025 ft | 101 kts | 272° |
| 2026-04-25 08:49 | 5.02327 | 7.01865 | 1072 ft | 93 kts | 271° |
| 2026-04-25 08:49 | 5.02362 | 7.01260 | 1069 ft | 83 kts | 271° |
| 2026-04-25 08:49 | 5.02399 | 7.00685 | 1010 ft | 82 kts | 273° |
| 2026-04-25 08:49 | 5.02449 | 7.00120 | 944 ft | 82 kts | 271° |
| 2026-04-25 08:50 | 5.02513 | 6.99545 | 841 ft | 83 kts | 271° |
| 2026-04-25 08:50 | 5.02577 | 6.98970 | 737 ft | 83 kts | 271° |
| 2026-04-25 08:50 | 5.02635 | 6.98385 | 632 ft | 83 kts | 271° |
| 2026-04-25 08:50 | 5.02698 | 6.97810 | 532 ft | 82 kts | 271° |
| 2026-04-25 08:51 | 5.02733 | 6.97239 | 498 ft | 82 kts | 272° |
| 2026-04-25 08:51 | 5.02763 | 6.96669 | 501 ft | 80 kts | 271° |
| 2026-04-25 08:51 | 5.02811 | 6.96149 | 546 ft | 75 kts | 277° |
| 2026-04-25 08:51 | 5.02800 | 6.95645 | 413 ft | 64 kts | 240° |
| 2026-04-25 08:52 | 5.02378 | 6.95407 | 266 ft | 76 kts | 210° |
| 2026-04-25 08:52 | 5.01956 | 6.95162 | 217 ft | 60 kts | 207° |
| 2026-04-25 08:52 | 5.01634 | 6.94996 | 169 ft | 45 kts | 209° |
| 2026-04-25 08:52 | 5.01361 | 6.94846 | 157 ft | 47 kts | 206° |
| 2026-04-25 08:53 | 5.01067 | 6.94691 | 152 ft | 46 kts | 218° |
| 2026-04-25 08:53 | 5.00808 | 6.94549 | 150 ft | 35 kts | 213° |
| 2026-04-25 08:53 | 5.00629 | 6.94451 | 130 ft | 19 kts | 216° |
| 2026-04-25 08:53 | 5.00568 | 6.94417 | 129 ft | 0 kts | 206° |
| 2026-04-25 08:54 | 5.00561 | 6.94415 | 153 ft | 3 kts | 208° |
| 2026-04-25 08:54 | 5.00540 | 6.94413 | 153 ft | 3 kts | 212° |
| 2026-04-25 08:54 | 5.00529 | 6.94407 | 128 ft | 0 kts | 207° |
| 2026-04-25 08:54 | 5.00519 | 6.94404 | 146 ft | 5 kts | 219° |
| 2026-04-25 08:55 | 5.00559 | 6.94422 | 167 ft | 15 kts | 33° |
| 2026-04-25 08:55 | 5.00660 | 6.94480 | 128 ft | 14 kts | 24° |
| 2026-04-25 08:55 | 5.00709 | 6.94503 | 130 ft | 9 kts | 33° |
| 2026-04-25 08:55 | 5.00808 | 6.94570 | 213 ft | 24 kts | 22° |
| 2026-04-25 08:56 | 5.00970 | 6.94616 | 182 ft | 12 kts | 112° |
| 2026-04-25 08:56 | 5.00800 | 6.94548 | 179 ft | 64 kts | 203° |
| 2026-04-25 08:56 | 5.00495 | 6.94400 | 191 ft | 28 kts | 205° |
| 2026-04-25 08:56 | 5.00404 | 6.94338 | 127 ft | 4 kts | 217° |
| 2026-04-25 08:57 | 5.00401 | 6.94335 | 127 ft | 0 kts | 207° |
| 2026-04-25 09:00 | 5.00408 | 6.94345 | 231 ft | 11 kts | 211° |
| 2026-04-25 09:00 | 5.00378 | 6.94344 | 531 ft | 29 kts | 214° |
| 2026-04-25 09:00 | 5.00056 | 6.94156 | 915 ft | 76 kts | 206° |
| 2026-04-25 09:00 | 4.99517 | 6.93903 | 1418 ft | 93 kts | 199° |
| 2026-04-25 09:01 | 4.98925 | 6.93651 | 1739 ft | 97 kts | 191° |
| 2026-04-25 09:01 | 4.98235 | 6.93439 | 1919 ft | 110 kts | 188° |
| 2026-04-25 09:01 | 4.97434 | 6.93260 | 2067 ft | 126 kts | 185° |
| 2026-04-25 09:01 | 4.96538 | 6.93087 | 2264 ft | 136 kts | 189° |
| 2026-04-25 09:02 | 4.95640 | 6.92751 | 2518 ft | 138 kts | 197° |
| 2026-04-25 09:02 | 4.94791 | 6.92299 | 2771 ft | 138 kts | 202° |
| 2026-04-25 09:02 | 4.93942 | 6.91836 | 2999 ft | 139 kts | 202° |
| 2026-04-25 09:02 | 4.93104 | 6.91349 | 3061 ft | 138 kts | 202° |
| 2026-04-25 09:03 | 4.92270 | 6.90845 | 3043 ft | 140 kts | 202° |
| 2026-04-25 09:03 | 4.91430 | 6.90333 | 3046 ft | 140 kts | 202° |
| 2026-04-25 09:03 | 4.90597 | 6.89813 | 3014 ft | 142 kts | 207° |
| 2026-04-25 09:03 | 4.90129 | 6.88946 | 3026 ft | 148 kts | 256° |
| 2026-04-25 09:04 | 4.90492 | 6.88003 | 3071 ft | 151 kts | 301° |
| 2026-04-25 09:04 | 4.91483 | 6.87636 | 3041 ft | 157 kts | 355° |
| 2026-04-25 09:04 | 4.92457 | 6.88059 | 3090 ft | 151 kts | 26° |
| 2026-04-25 09:04 | 4.93308 | 6.88694 | 2971 ft | 152 kts | 28° |
| 2026-04-25 09:05 | 4.94161 | 6.89384 | 2796 ft | 158 kts | 27° |
| 2026-04-25 09:05 | 4.94982 | 6.90139 | 2659 ft | 162 kts | 25° |
| 2026-04-25 09:05 | 4.95798 | 6.90940 | 2515 ft | 165 kts | 26° |
| 2026-04-25 09:05 | 4.96540 | 6.91751 | 2244 ft | 154 kts | 28° |
| 2026-04-25 09:06 | 4.97267 | 6.92530 | 2185 ft | 148 kts | 27° |
| 2026-04-25 09:06 | 4.97961 | 6.93307 | 2192 ft | 148 kts | 34° |
| 2026-04-25 09:06 | 4.98673 | 6.93964 | 2564 ft | 132 kts | 7° |
| 2026-04-25 09:06 | 4.99561 | 6.94317 | 2500 ft | 143 kts | 5° |
| 2026-04-25 09:07 | 5.00563 | 6.94678 | 2408 ft | 155 kts | 15° |
| 2026-04-25 09:07 | 5.01590 | 6.95066 | 2413 ft | 157 kts | 13° |
| 2026-04-25 09:07 | 5.02646 | 6.95369 | 2407 ft | 157 kts | 18° |
| 2026-04-25 09:07 | 5.03700 | 6.95683 | 2354 ft | 158 kts | 26° |
| 2026-04-25 09:08 | 5.04701 | 6.96152 | 2314 ft | 157 kts | 38° |
| 2026-04-25 09:08 | 5.05563 | 6.96821 | 2263 ft | 152 kts | 53° |
| 2026-04-25 09:08 | 5.06178 | 6.97678 | 2221 ft | 151 kts | 50° |
| 2026-04-25 09:08 | 5.06659 | 6.98602 | 2210 ft | 149 kts | 52° |
| 2026-04-25 09:09 | 5.07128 | 6.99526 | 2249 ft | 146 kts | 51° |
| 2026-04-25 09:09 | 5.07672 | 7.00403 | 2209 ft | 149 kts | 42° |
| 2026-04-25 09:09 | 5.08392 | 7.01148 | 2181 ft | 150 kts | 30° |
| 2026-04-25 09:09 | 5.09301 | 7.01666 | 2159 ft | 149 kts | 11° |
| 2026-04-25 09:10 | 5.10328 | 7.01817 | 2134 ft | 148 kts | 348° |
| 2026-04-25 09:10 | 5.11267 | 7.01480 | 1991 ft | 146 kts | 322° |
| 2026-04-25 09:10 | 5.12043 | 7.00915 | 1942 ft | 127 kts | 273° |
| 2026-04-25 09:10 | 5.11792 | 7.00276 | 2096 ft | 95 kts | 189° |
| 2026-04-25 09:11 | 5.10384 | 6.99929 | 1758 ft | 114 kts | 218° |
| 2026-04-25 09:11 | 5.09698 | 6.99474 | 1583 ft | 121 kts | 234° |
| 2026-04-25 09:11 | 5.08986 | 6.99010 | 1450 ft | 121 kts | 233° |
| 2026-04-25 09:12 | 5.08297 | 6.98620 | 1370 ft | 105 kts | 238° |
| 2026-04-25 09:12 | 5.07693 | 6.98292 | 1235 ft | 93 kts | 239° |
| 2026-04-25 09:12 | 5.07141 | 6.97993 | 1075 ft | 88 kts | 243° |
| 2026-04-25 09:12 | 5.06599 | 6.97693 | 923 ft | 90 kts | 245° |
| 2026-04-25 09:13 | 5.05952 | 6.97396 | 631 ft | 110 kts | 239° |
| 2026-04-25 09:13 | 5.05257 | 6.97002 | 549 ft | 120 kts | 240° |
| 2026-04-25 09:13 | 5.04497 | 6.96443 | 397 ft | 144 kts | 207° |
| 2026-04-25 09:13 | 5.03578 | 6.96054 | 330 ft | 144 kts | 206° |
| 2026-04-25 09:14 | 5.02713 | 6.95576 | 266 ft | 130 kts | 211° |
| 2026-04-25 09:14 | 5.02013 | 6.95207 | 220 ft | 99 kts | 213° |
| 2026-04-25 09:14 | 5.01471 | 6.94900 | 202 ft | 85 kts | 207° |
| 2026-04-25 09:14 | 5.00938 | 6.94584 | 200 ft | 93 kts | 205° |
| 2026-04-25 09:15 | 5.00312 | 6.94294 | 269 ft | 103 kts | 203° |
| 2026-04-25 09:15 | 4.99632 | 6.94017 | 432 ft | 108 kts | 209° |
| 2026-04-25 09:15 | 4.98942 | 6.93668 | 467 ft | 111 kts | 189° |
| 2026-04-25 09:15 | 4.98234 | 6.93811 | 435 ft | 107 kts | 143° |
| 2026-04-25 09:16 | 4.97577 | 6.94270 | 545 ft | 127 kts | 144° |
| 2026-04-25 09:16 | 4.96821 | 6.94823 | 659 ft | 138 kts | 142° |
| 2026-04-25 09:16 | 4.96044 | 6.95465 | 652 ft | 149 kts | 136° |
| 2026-04-25 09:16 | 4.95302 | 6.96236 | 602 ft | 157 kts | 130° |
| 2026-04-25 09:17 | 4.94112 | 6.98110 | 654 ft | 157 kts | 115° |
| 2026-04-25 09:17 | 4.93638 | 6.99092 | 751 ft | 153 kts | 110° |
| 2026-04-25 09:17 | 4.93195 | 7.00017 | 722 ft | 140 kts | 122° |
| 2026-04-25 09:18 | 4.92529 | 7.00659 | 710 ft | 128 kts | 147° |
| 2026-04-25 09:18 | 4.91767 | 7.01045 | 757 ft | 119 kts | 156° |
| 2026-04-25 09:18 | 4.90998 | 7.01312 | 775 ft | 113 kts | 161° |
| 2026-04-25 09:18 | 4.90222 | 7.01548 | 621 ft | 119 kts | 161° |
| 2026-04-25 09:19 | 4.89440 | 7.01926 | 517 ft | 130 kts | 147° |
| 2026-04-25 09:19 | 4.88759 | 7.02546 | 530 ft | 135 kts | 131° |
| 2026-04-25 09:19 | 4.88330 | 7.03391 | 532 ft | 137 kts | 111° |
| 2026-04-25 09:19 | 4.87862 | 7.04134 | 738 ft | 114 kts | 157° |
| 2026-04-25 09:20 | 4.87160 | 7.04153 | 853 ft | 105 kts | 226° |
| 2026-04-25 09:20 | 4.86572 | 7.03697 | 762 ft | 108 kts | 231° |
| 2026-04-25 09:20 | 4.86007 | 7.03179 | 610 ft | 110 kts | 225° |
| 2026-04-25 09:20 | 4.85438 | 7.02716 | 456 ft | 102 kts | 217° |
| 2026-04-25 09:21 | 4.84879 | 7.02326 | 301 ft | 91 kts | 213° |
| 2026-04-25 09:21 | 4.84403 | 7.02007 | 182 ft | 75 kts | 212° |
| 2026-04-25 09:21 | 4.84065 | 7.01781 | 106 ft | 39 kts | 216° |
| 2026-04-25 09:21 | 4.83913 | 7.01681 | 99 ft | 8 kts | 205° |
| 2026-04-25 09:22 | 4.83900 | 7.01673 | 99 ft | 0 kts | 212° |